Norwegian Spirit — C6TQ6 — position and weather

sailwx.info

Track history (hours):
 
Tides and Currents Weather Stations Pressure Air Temp Water Temp Dewpoint Dewpoint Depression Visibility Wind Speed Wind Dir Waves Ship Positions

Norwegian Spirit

Operator: Norwegian Cruise Line

Last reported at 2016-Jul-29 04:33 UTC. Time now 2016-Jul-29 06:02 UTC.
Position N 42°37' E 018°00'.

Type: Passenger vessel. MMSI: 311746000.

Date/timePositionNaut miles runAvg speedWind from/ knotsBaromVisibWave heightAir tempDewpointWater temp
2016-Jul-29 04:33N 42°37' E 018°00'7 7.4
2016-Jul-29 03:33N 42°31' E 017°55'7 6.9
2016-Jul-29 02:32N 42°25' E 017°51'7 6.8
2016-Jul-29 01:33N 42°18' E 017°47'7 6.7
2016-Jul-29 00:33N 42°15' E 017°55'7 6.8
2016-Jul-28 23:33N 42°11' E 018°03'7 6.9
2016-Jul-28 22:33N 42°08' E 018°11'7 6.9
2016-Jul-28 21:33N 42°04' E 018°19'6 6.4
2016-Jul-28 20:33N 42°09' E 018°24'7 6.8
2016-Jul-28 19:34N 42°15' E 018°28'7 7.2
2016-Jul-28 18:33N 42°21' E 018°32'3 5.2
2016-Jul-28 18:00N 42°24' E 018°30'613.4 270 / 31012.5 5.4 28.022.426.0
2016-Jul-28 17:33N 42°26' E 018°37'6 5.9
2016-Jul-28 16:32N 42°27' E 018°46'0 0.0
2016-Jul-28 15:32N 42°27' E 018°46'0 0.0
2016-Jul-28 14:32N 42°27' E 018°46'0 0.0
2016-Jul-28 13:32N 42°27' E 018°46'0 0.0
2016-Jul-28 12:32N 42°27' E 018°46'0 0.0
2016-Jul-28 11:32N 42°27' E 018°46'0 0.0
2016-Jul-28 10:29N 42°27' E 018°46'0 0.0
2016-Jul-28 09:32N 42°27' E 018°46'0 0.0
2016-Jul-28 08:32N 42°27' E 018°46'0 0.0
2016-Jul-28 07:32N 42°27' E 018°46'20 4.0
2016-Jul-28 02:33N 42°08' E 018°36'1413.9
2016-Jul-28 01:33N 41°55' E 018°39'1614.4
2016-Jul-28 00:25N 41°38' E 018°43'1914.4
2016-Jul-27 23:03N 41°19' E 018°46'714.3
2016-Jul-27 22:33N 41°12' E 018°47'1714.3
2016-Jul-27 21:21N 40°55' E 018°50'1314.2
2016-Jul-27 20:24N 40°42' E 018°54'2914.5
2016-Jul-27 18:23N 40°13' E 019°04'1315.3
2016-Jul-27 17:33N 40°06' E 019°17'813.7
2016-Jul-27 17:00N 40°00' E 019°24'33 2.8 330 / 241010.0 5.4 24.021.125.0
2016-Jul-27 05:00N 39°36' E 019°54'96 9.6 290 / 31011.2 5.4 24.019.626.0
2016-Jul-26 19:00N 38°00' E 020°00'15411.0 360 / 141018.0 5.4 1.025.0 27.0
2016-Jul-26 05:00N 36°18' E 022°24'4910.7 360 / 91010.0 5.4 25.022.227.0
2016-Jul-26 00:27N 36°32' E 023°22'2611.4
2016-Jul-25 22:11N 36°56' E 023°34'911.1
2016-Jul-25 21:25N 37°04' E 023°36'1011.5
2016-Jul-25 20:33N 37°14' E 023°38'1111.3
2016-Jul-25 19:33N 37°25' E 023°42'1111.3
2016-Jul-25 18:33N 37°36' E 023°43'1211.8
2016-Jul-25 17:33N 37°47' E 023°38'9 9.3
2016-Jul-25 16:34N 37°56' E 023°37'0 0.1
2016-Jul-25 15:31N 37°56' E 023°37'0 0.0
2016-Jul-25 14:31N 37°56' E 023°37'0 0.0
2016-Jul-25 13:31N 37°56' E 023°37'0 0.0
2016-Jul-25 12:31N 37°56' E 023°37'0 0.0
2016-Jul-25 11:31N 37°56' E 023°37'0 0.0
2016-Jul-25 10:31N 37°56' E 023°37'0 0.0
2016-Jul-25 09:31N 37°56' E 023°37'0 0.0
2016-Jul-25 08:31N 37°56' E 023°37'0 0.0
2016-Jul-25 07:31N 37°56' E 023°37'0 0.0
2016-Jul-25 06:31N 37°56' E 023°37'0 0.2
2016-Jul-25 05:34N 37°56' E 023°37'94165.2
2016-Jul-25 05:00N 37°54' E 025°36'93214.2 340 / 111010.2 5.4 24.021.124.0
2016-Jul-25 04:34N 37°51' E 023°39'1111.1
2016-Jul-25 03:34N 37°41' E 023°45'1010.0
2016-Jul-25 02:34N 37°36' E 023°55'1110.6
2016-Jul-25 01:30N 37°38' E 024°09'1011.1
2016-Jul-25 00:34N 37°46' E 024°18'1111.1
2016-Jul-24 23:34N 37°52' E 024°30'1111.3
2016-Jul-24 22:33N 37°59' E 024°41'1613.5
2016-Jul-24 21:22N 38°06' E 024°60'1011.9
2016-Jul-24 20:32N 38°02' E 025°11'2611.7
2016-Jul-24 18:18N 37°56' E 025°44'810.5
2016-Jul-24 17:34N 37°48' E 025°46'1212.2
2016-Jul-24 16:34N 37°41' E 025°33'1212.1
2016-Jul-24 15:34N 37°33' E 025°22'5 5.2
2016-Jul-24 14:31N 37°28' E 025°19'0 0.0
2016-Jul-24 13:28N 37°28' E 025°19'0 0.0
2016-Jul-24 12:31N 37°28' E 025°19'0 0.0
2016-Jul-24 11:31N 37°28' E 025°19'0 0.0
2016-Jul-24 10:31N 37°28' E 025°19'0 0.0
2016-Jul-24 09:31N 37°28' E 025°19'0 0.0
2016-Jul-24 08:31N 37°28' E 025°19'0 0.0
2016-Jul-24 07:31N 37°28' E 025°19'0 0.0
2016-Jul-24 06:28N 37°28' E 025°19'0 0.0
2016-Jul-24 05:33N 37°28' E 025°19'7 7.2
2016-Jul-24 04:34N 37°28' E 025°10'1616.3
2016-Jul-24 03:34N 37°18' E 024°54'3316.6
2016-Jul-24 01:32N 36°58' E 024°20'1717.0
2016-Jul-24 00:33N 36°48' E 024°03'1717.3
2016-Jul-23 23:34N 36°38' E 023°46'12418.9
2016-Jul-23 17:00N 36°30' E 021°12'24420.3 300 / 121013.2 27.024.327.0
2016-Jul-23 05:00N 37°36' E 016°18'1226.2 200 / 101014.0 24.021.124.0
2016-Jul-23 04:33N 37°44' E 016°07'3417.0
2016-Jul-23 02:33N 38°05' E 015°34'1615.9
2016-Jul-23 01:33N 38°20' E 015°40'2120.5
2016-Jul-23 00:33N 38°39' E 015°30'2120.7
2016-Jul-22 23:33N 38°58' E 015°19'2120.8
2016-Jul-22 22:34N 39°16' E 015°06'2120.7
2016-Jul-22 21:34N 39°35' E 014°55'2120.8
2016-Jul-22 20:33N 39°53' E 014°42'2221.2
2016-Jul-22 19:32N 40°13' E 014°30'2020.6
2016-Jul-22 18:33N 40°31' E 014°19'712.9
2016-Jul-22 18:00N 40°36' E 014°12'1432.8 260 / 81015.2 5.4 26.023.225.0
2016-Jul-22 17:34N 40°50' E 014°17'1 1.0
2016-Jul-22 16:30N 40°50' E 014°15'0 0.0
2016-Jul-22 15:30N 40°50' E 014°15'0 0.0
2016-Jul-22 14:30N 40°50' E 014°15'0 0.0
2016-Jul-22 13:24N 40°50' E 014°15'0 0.0
2016-Jul-22 12:24N 40°50' E 014°15'0 0.0
2016-Jul-22 11:24N 40°50' E 014°15'0 0.0
2016-Jul-22 09:12N 40°50' E 014°15'0 0.0
2016-Jul-22 08:18N 40°50' E 014°15'0 0.0
2016-Jul-22 05:33N 40°50' E 014°16'5 5.2
2016-Jul-22 04:34N 40°45' E 014°15'1515.2
2016-Jul-22 03:34N 40°37' E 013°59'1515.2
2016-Jul-22 02:34N 40°39' E 013°39'1615.6
2016-Jul-22 01:34N 40°42' E 013°19'1615.8
2016-Jul-22 00:34N 40°46' E 012°58'1515.0
2016-Jul-21 23:34N 40°53' E 012°41'1715.7
2016-Jul-21 22:28N 41°07' E 012°27'1415.2
2016-Jul-21 21:34N 41°18' E 012°17'1515.3
2016-Jul-21 20:34N 41°30' E 012°04'1515.2
2016-Jul-21 19:34N 41°42' E 011°51'1814.8
2016-Jul-21 18:22N 41°58' E 011°41'512.3
2016-Jul-21 18:00N 42°00' E 011°36'1021.7 210 / 81015.0 23.020.123.0
2016-Jul-21 17:33N 42°07' E 011°46'1 0.5
2016-Jul-21 16:10N 42°06' E 011°46'0 0.0
2016-Jul-21 15:22N 42°06' E 011°46'0 0.0
2016-Jul-21 14:28N 42°06' E 011°46'0 0.0
2016-Jul-21 12:25N 42°06' E 011°46'0 0.0
2016-Jul-21 11:31N 42°06' E 011°46'0 0.0
2016-Jul-21 07:30N 42°06' E 011°46'3 2.1
2016-Jul-21 06:00N 42°06' E 011°42'5 3.2 250 / 21015.6 5.4 23.018.521.0
2016-Jul-21 04:33N 42°03' E 011°37'1514.7
2016-Jul-21 03:33N 42°00' E 011°18'1514.7
2016-Jul-21 02:34N 42°01' E 010°58'1514.6
2016-Jul-21 01:33N 42°03' E 010°39'1814.5
2016-Jul-21 00:18N 42°05' E 010°14'3412.2
2016-Jul-20 21:32N 42°35' E 009°55'1414.9
2016-Jul-20 20:34N 42°50' E 009°58'1514.6
2016-Jul-20 19:34N 43°04' E 010°02'1514.7
2016-Jul-20 18:34N 43°18' E 010°07'1414.2
2016-Jul-20 17:33N 43°31' E 010°14'3 2.9
2016-Jul-20 16:29N 43°33' E 010°18'0 0.0
2016-Jul-20 15:29N 43°33' E 010°18'0 0.0
2016-Jul-20 14:29N 43°33' E 010°18'0 0.0
2016-Jul-20 13:29N 43°33' E 010°18'0 0.0
2016-Jul-20 12:29N 43°33' E 010°18'0 0.0
2016-Jul-20 11:29N 43°33' E 010°18'0 0.0
2016-Jul-20 10:29N 43°33' E 010°18'0 0.0
2016-Jul-20 09:29N 43°33' E 010°18'0 0.0
2016-Jul-20 08:29N 43°33' E 010°18'0 0.0
2016-Jul-20 07:32N 43°33' E 010°18'5 9.6
2016-Jul-20 07:00N 43°30' E 010°12'510.6 010 / 31017.6 5.4 25.020.724.0
2016-Jul-20 06:29N 43°33' E 010°18'0 0.0
2016-Jul-20 05:33N 43°33' E 010°18'8 8.3
2016-Jul-20 04:34N 43°27' E 010°10'1414.3
2016-Jul-20 03:33N 43°19' E 009°54'1515.0
2016-Jul-20 02:34N 43°16' E 009°34'1514.7
2016-Jul-20 01:33N 43°13' E 009°14'1514.8
2016-Jul-20 00:33N 43°11' E 008°54'1515.2
2016-Jul-19 23:33N 43°09' E 008°33'1515.1
2016-Jul-19 22:33N 43°07' E 008°13'1515.0
2016-Jul-19 21:33N 43°05' E 007°52'1514.9
2016-Jul-19 20:33N 43°03' E 007°32'1515.2
2016-Jul-19 19:33N 43°00' E 007°12'1832.7
2016-Jul-19 19:00N 42°54' E 006°48'510.6 260 / 251017.8 23.018.524.0
2016-Jul-19 18:33N 42°58' E 006°51'1515.0
2016-Jul-19 17:33N 42°57' E 006°31'1515.0
2016-Jul-19 16:33N 42°57' E 006°10'1313.4
2016-Jul-19 15:33N 43°05' E 005°56'2 1.6
2016-Jul-19 14:31N 43°07' E 005°56'0 0.0
2016-Jul-19 13:31N 43°07' E 005°56'0 0.0
2016-Jul-19 12:31N 43°07' E 005°56'0 0.0
2016-Jul-19 11:28N 43°07' E 005°56'0 0.0
2016-Jul-19 10:31N 43°07' E 005°56'0 0.0
2016-Jul-19 09:31N 43°07' E 005°56'0 0.0
2016-Jul-19 08:31N 43°07' E 005°56'0 0.0
2016-Jul-19 07:31N 43°07' E 005°56'7 4.6
2016-Jul-19 06:00N 43°00' E 005°54'   170 / 191019.5 5.4 25.017.523.0
Track history (hours):
 
Tides and Currents Weather Stations Pressure Air Temp Water Temp Dewpoint Dewpoint Depression Visibility Wind Speed Wind Dir Waves Ship Positions

Norwegian Spirit

Operator: Norwegian Cruise Line

Last reported at 2016-Jul-29 04:33 UTC. Time now 2016-Jul-29 06:02 UTC.
Position N 42°37' E 018°00'.

Type: Passenger vessel. MMSI: 311746000.

Date/timePositionNaut miles runAvg speedWind from/ knotsBaromVisibWave heightAir tempDewpointWater temp
2016-Jul-29 04:33N 42°37' E 018°00'7 7.4
2016-Jul-29 03:33N 42°31' E 017°55'7 6.9
2016-Jul-29 02:32N 42°25' E 017°51'7 6.8
2016-Jul-29 01:33N 42°18' E 017°47'7 6.7
2016-Jul-29 00:33N 42°15' E 017°55'7 6.8
2016-Jul-28 23:33N 42°11' E 018°03'7 6.9
2016-Jul-28 22:33N 42°08' E 018°11'7 6.9
2016-Jul-28 21:33N 42°04' E 018°19'6 6.4
2016-Jul-28 20:33N 42°09' E 018°24'7 6.8
2016-Jul-28 19:34N 42°15' E 018°28'7 7.2
2016-Jul-28 18:33N 42°21' E 018°32'3 5.2
2016-Jul-28 18:00N 42°24' E 018°30'613.4 270 / 31012.5 5.4 28.022.426.0
2016-Jul-28 17:33N 42°26' E 018°37'6 5.9
2016-Jul-28 16:32N 42°27' E 018°46'0 0.0
2016-Jul-28 15:32N 42°27' E 018°46'0 0.0
2016-Jul-28 14:32N 42°27' E 018°46'0 0.0
2016-Jul-28 13:32N 42°27' E 018°46'0 0.0
2016-Jul-28 12:32N 42°27' E 018°46'0 0.0
2016-Jul-28 11:32N 42°27' E 018°46'0 0.0
2016-Jul-28 10:29N 42°27' E 018°46'0 0.0
2016-Jul-28 09:32N 42°27' E 018°46'0 0.0
2016-Jul-28 08:32N 42°27' E 018°46'0 0.0
2016-Jul-28 07:32N 42°27' E 018°46'20 4.0
2016-Jul-28 02:33N 42°08' E 018°36'1413.9
2016-Jul-28 01:33N 41°55' E 018°39'1614.4
2016-Jul-28 00:25N 41°38' E 018°43'1914.4
2016-Jul-27 23:03N 41°19' E 018°46'714.3
2016-Jul-27 22:33N 41°12' E 018°47'1714.3
2016-Jul-27 21:21N 40°55' E 018°50'1314.2
2016-Jul-27 20:24N 40°42' E 018°54'2914.5
2016-Jul-27 18:23N 40°13' E 019°04'1315.3
2016-Jul-27 17:33N 40°06' E 019°17'813.7
2016-Jul-27 17:00N 40°00' E 019°24'33 2.8 330 / 241010.0 5.4 24.021.125.0
2016-Jul-27 05:00N 39°36' E 019°54'96 9.6 290 / 31011.2 5.4 24.019.626.0
2016-Jul-26 19:00N 38°00' E 020°00'15411.0 360 / 141018.0 5.4 1.025.0 27.0
2016-Jul-26 05:00N 36°18' E 022°24'4910.7 360 / 91010.0 5.4 25.022.227.0
2016-Jul-26 00:27N 36°32' E 023°22'2611.4
2016-Jul-25 22:11N 36°56' E 023°34'911.1
2016-Jul-25 21:25N 37°04' E 023°36'1011.5
2016-Jul-25 20:33N 37°14' E 023°38'1111.3
2016-Jul-25 19:33N 37°25' E 023°42'1111.3
2016-Jul-25 18:33N 37°36' E 023°43'1211.8
2016-Jul-25 17:33N 37°47' E 023°38'9 9.3
2016-Jul-25 16:34N 37°56' E 023°37'0 0.1
2016-Jul-25 15:31N 37°56' E 023°37'0 0.0
2016-Jul-25 14:31N 37°56' E 023°37'0 0.0
2016-Jul-25 13:31N 37°56' E 023°37'0 0.0
2016-Jul-25 12:31N 37°56' E 023°37'0 0.0
2016-Jul-25 11:31N 37°56' E 023°37'0 0.0
2016-Jul-25 10:31N 37°56' E 023°37'0 0.0
2016-Jul-25 09:31N 37°56' E 023°37'0 0.0
2016-Jul-25 08:31N 37°56' E 023°37'0 0.0
2016-Jul-25 07:31N 37°56' E 023°37'0 0.0
2016-Jul-25 06:31N 37°56' E 023°37'0 0.2
2016-Jul-25 05:34N 37°56' E 023°37'94165.2
2016-Jul-25 05:00N 37°54' E 025°36'93214.2 340 / 111010.2 5.4 24.021.124.0
2016-Jul-25 04:34N 37°51' E 023°39'1111.1
2016-Jul-25 03:34N 37°41' E 023°45'1010.0
2016-Jul-25 02:34N 37°36' E 023°55'1110.6
2016-Jul-25 01:30N 37°38' E 024°09'1011.1
2016-Jul-25 00:34N 37°46' E 024°18'1111.1
2016-Jul-24 23:34N 37°52' E 024°30'1111.3
2016-Jul-24 22:33N 37°59' E 024°41'1613.5
2016-Jul-24 21:22N 38°06' E 024°60'1011.9
2016-Jul-24 20:32N 38°02' E 025°11'2611.7
2016-Jul-24 18:18N 37°56' E 025°44'810.5
2016-Jul-24 17:34N 37°48' E 025°46'1212.2
2016-Jul-24 16:34N 37°41' E 025°33'1212.1
2016-Jul-24 15:34N 37°33' E 025°22'5 5.2
2016-Jul-24 14:31N 37°28' E 025°19'0 0.0
2016-Jul-24 13:28N 37°28' E 025°19'0 0.0
2016-Jul-24 12:31N 37°28' E 025°19'0 0.0
2016-Jul-24 11:31N 37°28' E 025°19'0 0.0
2016-Jul-24 10:31N 37°28' E 025°19'0 0.0
2016-Jul-24 09:31N 37°28' E 025°19'0 0.0
2016-Jul-24 08:31N 37°28' E 025°19'0 0.0
2016-Jul-24 07:31N 37°28' E 025°19'0 0.0
2016-Jul-24 06:28N 37°28' E 025°19'0 0.0
2016-Jul-24 05:33N 37°28' E 025°19'7 7.2
2016-Jul-24 04:34N 37°28' E 025°10'1616.3
2016-Jul-24 03:34N 37°18' E 024°54'3316.6
2016-Jul-24 01:32N 36°58' E 024°20'1717.0
2016-Jul-24 00:33N 36°48' E 024°03'1717.3
2016-Jul-23 23:34N 36°38' E 023°46'12418.9
2016-Jul-23 17:00N 36°30' E 021°12'24420.3 300 / 121013.2 27.024.327.0
2016-Jul-23 05:00N 37°36' E 016°18'1226.2 200 / 101014.0 24.021.124.0
2016-Jul-23 04:33N 37°44' E 016°07'3417.0
2016-Jul-23 02:33N 38°05' E 015°34'1615.9
2016-Jul-23 01:33N 38°20' E 015°40'2120.5
2016-Jul-23 00:33N 38°39' E 015°30'2120.7
2016-Jul-22 23:33N 38°58' E 015°19'2120.8
2016-Jul-22 22:34N 39°16' E 015°06'2120.7
2016-Jul-22 21:34N 39°35' E 014°55'2120.8
2016-Jul-22 20:33N 39°53' E 014°42'2221.2
2016-Jul-22 19:32N 40°13' E 014°30'2020.6
2016-Jul-22 18:33N 40°31' E 014°19'712.9
2016-Jul-22 18:00N 40°36' E 014°12'1432.8 260 / 81015.2 5.4 26.023.225.0
2016-Jul-22 17:34N 40°50' E 014°17'1 1.0
2016-Jul-22 16:30N 40°50' E 014°15'0 0.0
2016-Jul-22 15:30N 40°50' E 014°15'0 0.0
2016-Jul-22 14:30N 40°50' E 014°15'0 0.0
2016-Jul-22 13:24N 40°50' E 014°15'0 0.0
2016-Jul-22 12:24N 40°50' E 014°15'0 0.0
2016-Jul-22 11:24N 40°50' E 014°15'0 0.0
2016-Jul-22 09:12N 40°50' E 014°15'0 0.0
2016-Jul-22 08:18N 40°50' E 014°15'0 0.0
2016-Jul-22 05:33N 40°50' E 014°16'5 5.2
2016-Jul-22 04:34N 40°45' E 014°15'1515.2
2016-Jul-22 03:34N 40°37' E 013°59'1515.2
2016-Jul-22 02:34N 40°39' E 013°39'1615.6
2016-Jul-22 01:34N 40°42' E 013°19'1615.8
2016-Jul-22 00:34N 40°46' E 012°58'1515.0
2016-Jul-21 23:34N 40°53' E 012°41'1715.7
2016-Jul-21 22:28N 41°07' E 012°27'1415.2
2016-Jul-21 21:34N 41°18' E 012°17'1515.3
2016-Jul-21 20:34N 41°30' E 012°04'1515.2
2016-Jul-21 19:34N 41°42' E 011°51'1814.8
2016-Jul-21 18:22N 41°58' E 011°41'512.3
2016-Jul-21 18:00N 42°00' E 011°36'1021.7 210 / 81015.0 23.020.123.0
2016-Jul-21 17:33N 42°07' E 011°46'1 0.5
2016-Jul-21 16:10N 42°06' E 011°46'0 0.0
2016-Jul-21 15:22N 42°06' E 011°46'0 0.0
2016-Jul-21 14:28N 42°06' E 011°46'0 0.0
2016-Jul-21 12:25N 42°06' E 011°46'0 0.0
2016-Jul-21 11:31N 42°06' E 011°46'0 0.0
2016-Jul-21 07:30N 42°06' E 011°46'3 2.1
2016-Jul-21 06:00N 42°06' E 011°42'5 3.2 250 / 21015.6 5.4 23.018.521.0
2016-Jul-21 04:33N 42°03' E 011°37'1514.7
2016-Jul-21 03:33N 42°00' E 011°18'1514.7
2016-Jul-21 02:34N 42°01' E 010°58'1514.6
2016-Jul-21 01:33N 42°03' E 010°39'1814.5
2016-Jul-21 00:18N 42°05' E 010°14'3412.2
2016-Jul-20 21:32N 42°35' E 009°55'1414.9
2016-Jul-20 20:34N 42°50' E 009°58'1514.6
2016-Jul-20 19:34N 43°04' E 010°02'1514.7
2016-Jul-20 18:34N 43°18' E 010°07'1414.2
2016-Jul-20 17:33N 43°31' E 010°14'3 2.9
2016-Jul-20 16:29N 43°33' E 010°18'0 0.0
2016-Jul-20 15:29N 43°33' E 010°18'0 0.0
2016-Jul-20 14:29N 43°33' E 010°18'0 0.0
2016-Jul-20 13:29N 43°33' E 010°18'0 0.0
2016-Jul-20 12:29N 43°33' E 010°18'0 0.0
2016-Jul-20 11:29N 43°33' E 010°18'0 0.0
2016-Jul-20 10:29N 43°33' E 010°18'0 0.0
2016-Jul-20 09:29N 43°33' E 010°18'0 0.0
2016-Jul-20 08:29N 43°33' E 010°18'0 0.0
2016-Jul-20 07:32N 43°33' E 010°18'5 9.6
2016-Jul-20 07:00N 43°30' E 010°12'510.6 010 / 31017.6 5.4 25.020.724.0
2016-Jul-20 06:29N 43°33' E 010°18'0 0.0
2016-Jul-20 05:33N 43°33' E 010°18'8 8.3
2016-Jul-20 04:34N 43°27' E 010°10'1414.3
2016-Jul-20 03:33N 43°19' E 009°54'1515.0
2016-Jul-20 02:34N 43°16' E 009°34'1514.7
2016-Jul-20 01:33N 43°13' E 009°14'1514.8
2016-Jul-20 00:33N 43°11' E 008°54'1515.2
2016-Jul-19 23:33N 43°09' E 008°33'1515.1
2016-Jul-19 22:33N 43°07' E 008°13'1515.0
2016-Jul-19 21:33N 43°05' E 007°52'1514.9
2016-Jul-19 20:33N 43°03' E 007°32'1515.2
2016-Jul-19 19:33N 43°00' E 007°12'1832.7
2016-Jul-19 19:00N 42°54' E 006°48'510.6 260 / 251017.8 23.018.524.0
2016-Jul-19 18:33N 42°58' E 006°51'1515.0
2016-Jul-19 17:33N 42°57' E 006°31'1515.0
2016-Jul-19 16:33N 42°57' E 006°10'1313.4
2016-Jul-19 15:33N 43°05' E 005°56'2 1.6
2016-Jul-19 14:31N 43°07' E 005°56'0 0.0
2016-Jul-19 13:31N 43°07' E 005°56'0 0.0
2016-Jul-19 12:31N 43°07' E 005°56'0 0.0
2016-Jul-19 11:28N 43°07' E 005°56'0 0.0
2016-Jul-19 10:31N 43°07' E 005°56'0 0.0
2016-Jul-19 09:31N 43°07' E 005°56'0 0.0
2016-Jul-19 08:31N 43°07' E 005°56'0 0.0
2016-Jul-19 07:31N 43°07' E 005°56'7 4.6
2016-Jul-19 06:00N 43°00' E 005°54'   170 / 191019.5 5.4 25.017.523.0

Dump ship's entire track history